createdAt,value
2023-05-21T00:01:56.772Z,14.40
2023-05-21T00:04:25.576Z,14.40
2023-05-21T00:06:52.892Z,14.50
2023-05-21T00:09:19.782Z,14.50
2023-05-21T00:11:46.636Z,14.50
2023-05-21T00:14:13.893Z,14.60
2023-05-21T00:16:41.149Z,14.50
2023-05-21T00:19:08.300Z,14.50
2023-05-21T00:21:35.237Z,14.60
2023-05-21T00:24:02.133Z,14.60
2023-05-21T00:26:29.005Z,14.50
2023-05-21T00:28:55.967Z,14.30
2023-05-21T00:31:22.975Z,14.40
2023-05-21T00:33:49.820Z,14.40
2023-05-21T00:36:17.328Z,14.40
2023-05-21T00:38:44.303Z,14.40
2023-05-21T00:41:11.508Z,14.40
2023-05-21T00:43:42.045Z,14.30
2023-05-21T00:46:13.631Z,14.20
2023-05-21T00:48:40.558Z,14.20
2023-05-21T00:51:07.671Z,14.20
2023-05-21T00:53:35.716Z,14.20
2023-05-21T00:56:03.506Z,14.30
2023-05-21T00:58:31.210Z,14.30
2023-05-21T01:00:58.877Z,14.30
2023-05-21T01:03:26.421Z,14.20
2023-05-21T01:05:53.503Z,14.20
2023-05-21T01:08:21.885Z,14.20
2023-05-21T01:10:50.303Z,14.10
2023-05-21T01:13:18.104Z,14.10
2023-05-21T01:15:46.084Z,13.90
2023-05-21T01:18:14.459Z,13.80
2023-05-21T01:20:42.984Z,13.80
2023-05-21T01:23:09.824Z,13.70
2023-05-21T01:25:36.950Z,13.70
2023-05-21T01:28:04.206Z,13.50
2023-05-21T01:30:31.306Z,13.50
2023-05-21T01:33:05.041Z,13.60
2023-05-21T01:35:41.849Z,13.50
2023-05-21T01:38:27.148Z,13.50
2023-05-21T01:41:03.730Z,13.50
2023-05-21T01:43:36.560Z,13.40
2023-05-21T01:46:05.650Z,13.40
2023-05-21T01:48:34.307Z,13.30
2023-05-21T01:51:04.499Z,13.20
2023-05-21T01:53:31.805Z,13.10
2023-05-21T01:55:59.430Z,13.20
2023-05-21T01:58:26.400Z,13.20
2023-05-21T02:00:53.267Z,13.30
2023-05-21T02:03:21.726Z,13.30
2023-05-21T02:05:48.782Z,13.40
2023-05-21T02:08:15.703Z,13.40
2023-05-21T02:10:42.572Z,13.30
2023-05-21T02:13:09.465Z,13.30
2023-05-21T02:15:36.548Z,13.30
2023-05-21T02:18:04.496Z,13.30
2023-05-21T02:20:31.879Z,13.30
2023-05-21T02:22:58.756Z,13.20
2023-05-21T02:25:26.136Z,13.10
2023-05-21T02:27:54.155Z,13.10
2023-05-21T02:30:21.534Z,13.00
2023-05-21T02:32:49.277Z,12.90
2023-05-21T02:35:16.342Z,13.10
2023-05-21T02:37:44.343Z,13.00
2023-05-21T02:40:12.312Z,13.00
2023-05-21T02:42:41.426Z,12.90
2023-05-21T02:45:10.119Z,12.90
2023-05-21T02:47:38.428Z,12.80
2023-05-21T02:50:07.633Z,12.70
2023-05-21T02:52:34.579Z,12.80
2023-05-21T02:55:01.567Z,12.80
2023-05-21T02:57:28.416Z,12.80
2023-05-21T02:59:55.310Z,12.70
2023-05-21T03:02:22.380Z,12.80
2023-05-21T03:04:51.664Z,12.80
2023-05-21T03:07:19.944Z,12.90
2023-05-21T03:09:47.087Z,12.80
2023-05-21T03:12:14.052Z,12.70
2023-05-21T03:14:44.226Z,12.70
2023-05-21T03:17:14.073Z,12.70
2023-05-21T03:19:42.036Z,12.70
2023-05-21T03:22:09.411Z,12.80
2023-05-21T03:27:06.463Z,12.80
2023-05-21T03:29:34.124Z,12.90
2023-05-21T03:32:02.064Z,12.80
2023-05-21T03:34:29.026Z,13.00
2023-05-21T03:36:55.924Z,12.90
2023-05-21T03:39:23.114Z,12.90
2023-05-21T03:41:50.088Z,12.90
2023-05-21T03:44:17.110Z,12.80
2023-05-21T03:46:45.553Z,12.80
2023-05-21T03:49:13.955Z,12.90
2023-05-21T03:51:40.897Z,12.80
2023-05-21T03:54:07.847Z,13.00
2023-05-21T03:56:34.779Z,12.90
2023-05-21T03:59:01.815Z,12.90
2023-05-21T04:01:28.798Z,13.00
2023-05-21T04:03:55.937Z,13.00
2023-05-21T04:06:23.083Z,13.10
2023-05-21T04:11:18.147Z,13.20
2023-05-21T04:13:44.999Z,13.20
2023-05-21T04:16:14.849Z,13.20
2023-05-21T04:18:44.143Z,13.20
2023-05-21T04:21:12.669Z,13.30
2023-05-21T04:23:39.810Z,13.30
2023-05-21T04:26:07.725Z,13.30
2023-05-21T04:28:35.490Z,13.40
2023-05-21T04:31:02.746Z,13.40
2023-05-21T04:33:30.470Z,13.50
2023-05-21T04:35:57.935Z,13.50
2023-05-21T04:38:26.153Z,13.50
2023-05-21T04:40:53.392Z,13.60
2023-05-21T04:43:26.116Z,13.60
2023-05-21T04:45:55.123Z,13.60
2023-05-21T04:48:27.234Z,13.80
2023-05-21T04:50:54.351Z,14.80
2023-05-21T04:53:22.001Z,13.80
2023-05-21T04:55:49.304Z,13.80
2023-05-21T04:58:18.412Z,13.90
2023-05-21T05:00:51.891Z,13.80
2023-05-21T05:03:19.127Z,13.90
2023-05-21T05:05:46.669Z,13.90
2023-05-21T05:08:15.789Z,14.10
2023-05-21T05:10:43.163Z,14.20
2023-05-21T05:13:10.113Z,14.30
2023-05-21T05:15:37.893Z,14.30
2023-05-21T05:18:05.105Z,14.30
2023-05-21T05:20:31.953Z,14.40
2023-05-21T05:22:58.863Z,14.50
2023-05-21T05:25:26.018Z,14.60
2023-05-21T05:27:52.876Z,14.70
2023-05-21T05:30:20.899Z,14.70
2023-05-21T05:32:47.933Z,14.80
2023-05-21T05:35:14.858Z,14.80
2023-05-21T05:37:41.821Z,14.80
2023-05-21T05:40:09.131Z,15.00
2023-05-21T05:42:35.949Z,15.00
2023-05-21T05:45:02.857Z,15.10
2023-05-21T05:47:29.829Z,15.10
2023-05-21T05:49:56.836Z,15.20
2023-05-21T05:52:23.763Z,15.20
2023-05-21T05:54:50.753Z,15.30
2023-05-21T05:57:17.632Z,15.40
2023-05-21T05:59:44.589Z,15.50
2023-05-21T06:02:11.520Z,15.50
2023-05-21T06:04:38.504Z,15.60
2023-05-21T06:07:05.511Z,15.70
2023-05-21T06:09:32.374Z,15.80
2023-05-21T06:11:59.260Z,15.90
2023-05-21T06:14:26.731Z,16.00
2023-05-21T06:16:53.612Z,16.00
2023-05-21T06:19:20.858Z,16.00
2023-05-21T06:21:48.599Z,16.00
2023-05-21T06:24:15.994Z,16.00
2023-05-21T06:26:42.904Z,16.10
2023-05-21T06:29:09.838Z,16.30
2023-05-21T06:31:36.779Z,16.30
2023-05-21T06:34:04.156Z,16.30
2023-05-21T06:36:32.561Z,16.50
2023-05-21T06:38:59.606Z,16.50
2023-05-21T06:41:26.715Z,16.60
2023-05-21T06:43:53.595Z,16.80
2023-05-21T06:46:21.083Z,16.90
2023-05-21T06:48:48.032Z,17.10
2023-05-21T06:51:15.338Z,17.10
2023-05-21T06:53:42.191Z,17.30
2023-05-21T06:56:09.048Z,17.40
2023-05-21T06:58:36.033Z,17.50
2023-05-21T07:01:03.113Z,17.50
2023-05-21T07:03:30.147Z,17.60
2023-05-21T07:05:58.079Z,17.70
2023-05-21T07:08:25.050Z,17.80
2023-05-21T07:10:51.906Z,18.00
2023-05-21T07:13:18.905Z,18.10
2023-05-21T07:15:45.777Z,18.20
2023-05-21T07:18:13.358Z,18.20
2023-05-21T07:20:40.994Z,18.40
2023-05-21T07:23:07.833Z,18.60
2023-05-21T07:25:34.813Z,18.80
2023-05-21T07:28:01.784Z,19.00
2023-05-21T07:30:28.706Z,19.30
2023-05-21T07:32:55.735Z,19.70
2023-05-21T07:35:22.883Z,20.00
2023-05-21T07:37:49.884Z,20.30
2023-05-21T07:40:16.941Z,20.50
2023-05-21T07:42:43.841Z,20.90
2023-05-21T07:45:10.868Z,21.10
2023-05-21T07:47:37.905Z,21.40
2023-05-21T07:50:05.682Z,21.50
2023-05-21T07:52:32.552Z,21.70
2023-05-21T07:54:59.458Z,22.00
2023-05-21T07:57:26.368Z,22.50
2023-05-21T07:59:53.348Z,22.70
2023-05-21T08:02:20.456Z,23.00
2023-05-21T08:04:47.477Z,22.90
2023-05-21T08:07:17.017Z,23.50
2023-05-21T08:09:43.896Z,23.70
2023-05-21T08:12:10.835Z,23.70
2023-05-21T08:14:37.661Z,24.00
2023-05-21T08:17:04.723Z,23.80
2023-05-21T08:19:31.831Z,24.10
2023-05-21T08:21:58.732Z,23.80
2023-05-21T08:24:26.524Z,23.90
2023-05-21T08:26:53.821Z,23.70
2023-05-21T08:29:20.853Z,23.80
2023-05-21T08:31:47.752Z,23.80
2023-05-21T08:34:14.727Z,23.90
2023-05-21T08:36:43.384Z,23.80
2023-05-21T08:39:10.282Z,23.50
2023-05-21T08:41:39.283Z,24.00
2023-05-21T08:44:12.220Z,24.00
2023-05-21T08:46:43.347Z,23.80
2023-05-21T08:49:14.067Z,24.10
2023-05-21T08:51:41.849Z,24.50
2023-05-21T08:54:09.498Z,24.20
2023-05-21T08:56:36.738Z,24.10
2023-05-21T08:59:03.674Z,24.10
2023-05-21T09:01:33.560Z,24.60
2023-05-21T09:04:12.340Z,24.70
2023-05-21T09:06:47.350Z,24.80
2023-05-21T09:09:27.986Z,24.80
2023-05-21T09:11:55.002Z,24.80
2023-05-21T09:14:22.867Z,25.10
2023-05-21T09:16:49.792Z,25.20
2023-05-21T09:19:16.726Z,25.40
2023-05-21T09:21:44.160Z,25.20
2023-05-21T09:24:11.248Z,25.20
2023-05-21T09:26:38.305Z,24.00
2023-05-21T09:29:05.171Z,24.40
2023-05-21T09:31:33.046Z,24.70
2023-05-21T09:34:00.607Z,25.30
2023-05-21T09:36:29.462Z,25.60
2023-05-21T09:38:58.469Z,26.10
2023-05-21T09:41:36.058Z,26.20
2023-05-21T09:44:03.501Z,26.60
2023-05-21T09:46:41.543Z,26.90
2023-05-21T09:49:24.106Z,26.80
2023-05-21T09:51:51.000Z,27.10
2023-05-21T09:54:17.900Z,27.70
2023-05-21T09:56:44.787Z,28.20
2023-05-21T09:59:11.722Z,27.60
2023-05-21T10:01:38.888Z,27.90
2023-05-21T10:04:09.490Z,27.60
2023-05-21T10:06:42.222Z,27.60
2023-05-21T10:09:11.609Z,27.60
2023-05-21T10:11:42.997Z,27.60
2023-05-21T10:14:17.140Z,28.10
2023-05-21T10:16:45.106Z,28.50
2023-05-21T10:19:14.422Z,28.90
2023-05-21T10:21:42.345Z,28.10
2023-05-21T10:24:10.377Z,29.10
2023-05-21T10:26:39.665Z,29.90
2023-05-21T10:29:08.669Z,29.90
2023-05-21T10:31:36.061Z,29.10
2023-05-21T10:34:06.187Z,28.50
2023-05-21T10:36:34.322Z,28.80
2023-05-21T10:39:03.457Z,28.40
2023-05-21T10:41:38.691Z,29.00
2023-05-21T10:44:22.083Z,29.30
2023-05-21T10:47:07.571Z,29.20
2023-05-21T10:49:34.875Z,29.70
2023-05-21T10:52:18.423Z,29.50
2023-05-21T10:54:54.454Z,29.20
2023-05-21T10:57:55.490Z,29.80
2023-05-21T11:00:24.619Z,30.50
2023-05-21T11:02:53.149Z,29.80
2023-05-21T11:05:50.909Z,29.00
2023-05-21T11:08:27.794Z,29.90
2023-05-21T11:10:58.131Z,30.50
2023-05-21T11:13:27.077Z,30.90
2023-05-21T11:16:02.465Z,30.00
2023-05-21T11:18:35.591Z,29.30
2023-05-21T11:21:12.653Z,29.20
2023-05-21T11:23:56.690Z,30.00
2023-05-21T11:26:26.305Z,30.20
2023-05-21T11:29:05.359Z,29.90
2023-05-21T11:31:40.343Z,29.90
2023-05-21T11:34:14.772Z,29.50
2023-05-21T11:36:44.057Z,29.20
2023-05-21T11:39:15.830Z,29.70
2023-05-21T11:42:01.029Z,29.80
2023-05-21T11:44:41.001Z,29.90
2023-05-21T11:47:16.015Z,30.00
2023-05-21T11:49:43.113Z,29.60
2023-05-21T11:52:11.919Z,29.30
2023-05-21T11:54:55.732Z,29.50
2023-05-21T11:57:30.572Z,28.90
2023-05-21T11:59:59.719Z,29.10
2023-05-21T12:02:30.856Z,29.60
2023-05-21T12:05:04.007Z,29.50
2023-05-21T12:07:31.389Z,29.50
2023-05-21T12:09:58.988Z,29.30
2023-05-21T12:12:35.308Z,29.40
2023-05-21T12:15:10.375Z,29.00
2023-05-21T12:17:37.507Z,28.60
2023-05-21T12:20:07.549Z,28.60
2023-05-21T12:22:34.521Z,28.60
2023-05-21T12:25:01.688Z,28.80
2023-05-21T12:27:31.223Z,28.80
2023-05-21T12:29:58.916Z,29.10
2023-05-21T12:32:28.246Z,28.70
2023-05-21T12:34:56.541Z,28.30
2023-05-21T12:37:35.784Z,28.60
2023-05-21T12:40:11.153Z,28.30
2023-05-21T12:42:40.225Z,28.70
2023-05-21T12:45:08.544Z,28.30
2023-05-21T12:47:36.018Z,28.40
2023-05-21T12:50:04.896Z,28.10
2023-05-21T12:52:31.753Z,28.20
2023-05-21T12:54:59.764Z,28.20
2023-05-21T12:57:38.886Z,27.30
2023-05-21T13:00:07.474Z,27.50
2023-05-21T13:02:42.302Z,27.70
2023-05-21T13:05:19.481Z,27.10
2023-05-21T13:07:47.456Z,27.60
2023-05-21T13:10:18.409Z,27.80
2023-05-21T13:12:45.791Z,28.20
2023-05-21T13:15:13.283Z,27.80
2023-05-21T13:17:40.213Z,28.00
2023-05-21T13:20:13.319Z,27.90
2023-05-21T13:22:46.961Z,28.00
2023-05-21T13:25:16.965Z,28.00
2023-05-21T13:27:44.571Z,28.00
2023-05-21T13:30:11.860Z,27.90
2023-05-21T13:32:40.438Z,28.30
2023-05-21T13:35:07.928Z,28.30
2023-05-21T13:37:38.153Z,28.50
2023-05-21T13:40:07.011Z,28.10
2023-05-21T13:42:34.931Z,27.90
2023-05-21T13:45:02.140Z,27.60
2023-05-21T13:47:29.086Z,27.30
2023-05-21T13:49:55.986Z,27.00
2023-05-21T13:52:22.926Z,27.20
2023-05-21T13:54:49.955Z,27.20
2023-05-21T13:57:16.811Z,27.50
2023-05-21T13:59:43.786Z,27.50
2023-05-21T14:02:10.813Z,27.50
2023-05-21T14:04:39.428Z,27.60
2023-05-21T14:07:07.081Z,27.60
2023-05-21T14:09:34.506Z,27.40
2023-05-21T14:12:01.654Z,26.90
2023-05-21T14:14:28.583Z,26.80
2023-05-21T14:16:55.933Z,26.90
2023-05-21T14:19:23.071Z,27.10
2023-05-21T14:21:52.866Z,26.90
2023-05-21T14:24:20.163Z,27.00
2023-05-21T14:26:47.069Z,26.90
2023-05-21T14:29:14.669Z,27.10
2023-05-21T14:31:43.047Z,26.90
2023-05-21T14:34:10.249Z,26.70
2023-05-21T14:36:37.155Z,26.90
2023-05-21T14:39:04.212Z,27.30
2023-05-21T14:41:31.374Z,27.30
2023-05-21T14:43:58.274Z,26.70
2023-05-21T14:46:25.321Z,26.90
2023-05-21T14:48:52.904Z,26.90
2023-05-21T14:51:20.353Z,26.90
2023-05-21T14:53:47.231Z,27.10
2023-05-21T14:56:14.106Z,26.90
2023-05-21T14:58:41.112Z,27.10
2023-05-21T15:01:08.579Z,26.90
2023-05-21T15:03:35.695Z,26.90
2023-05-21T15:06:02.620Z,26.80
2023-05-21T15:08:29.524Z,26.70
2023-05-21T15:10:57.227Z,26.70
2023-05-21T15:13:24.189Z,26.70
2023-05-21T15:15:51.278Z,26.50
2023-05-21T15:18:18.229Z,26.40
2023-05-21T15:20:45.132Z,26.40
2023-05-21T15:23:17.286Z,26.40
2023-05-21T15:25:45.182Z,26.30
2023-05-21T15:28:13.167Z,26.20
2023-05-21T15:30:40.578Z,25.70
2023-05-21T15:33:07.650Z,25.40
2023-05-21T15:35:36.463Z,25.40
2023-05-21T15:38:03.805Z,25.60
2023-05-21T15:40:31.663Z,25.50
2023-05-21T15:42:58.548Z,25.50
2023-05-21T15:45:25.820Z,25.30
2023-05-21T15:47:52.910Z,25.20
2023-05-21T15:50:19.920Z,25.40
2023-05-21T15:52:46.801Z,25.20
2023-05-21T15:55:14.211Z,25.00
2023-05-21T15:57:41.298Z,24.80
2023-05-21T16:00:09.575Z,24.70
2023-05-21T16:02:36.861Z,24.40
2023-05-21T16:05:04.141Z,24.60
2023-05-21T16:07:31.013Z,24.30
2023-05-21T16:09:58.001Z,24.00
2023-05-21T16:12:25.030Z,24.30
2023-05-21T16:14:51.955Z,24.10
2023-05-21T16:17:21.955Z,23.80
2023-05-21T16:19:48.881Z,23.90
2023-05-21T16:22:16.249Z,23.80
2023-05-21T16:24:43.151Z,23.90
2023-05-21T16:27:10.045Z,23.80
2023-05-21T16:29:39.350Z,23.50
2023-05-21T16:32:07.860Z,23.50
2023-05-21T16:34:35.470Z,23.30
2023-05-21T16:37:02.468Z,23.30
2023-05-21T16:39:29.451Z,23.00
2023-05-21T16:42:00.237Z,22.70
2023-05-21T16:44:27.544Z,22.30
2023-05-21T16:46:54.487Z,22.30
2023-05-21T16:49:21.387Z,22.20
2023-05-21T16:51:48.264Z,22.10
2023-05-21T16:54:15.212Z,22.10
2023-05-21T16:56:42.115Z,22.10
2023-05-21T16:59:09.489Z,21.90
2023-05-21T17:01:36.833Z,21.80
2023-05-21T17:04:06.499Z,21.70
2023-05-21T17:06:33.950Z,21.60
2023-05-21T17:09:01.568Z,21.50
2023-05-21T17:11:28.909Z,21.50
2023-05-21T17:13:55.770Z,21.40
2023-05-21T17:16:23.773Z,21.40
2023-05-21T17:18:51.356Z,21.50
2023-05-21T17:21:19.304Z,21.30
2023-05-21T17:23:46.222Z,21.20
2023-05-21T17:26:14.062Z,21.20
2023-05-21T17:28:41.017Z,21.20
2023-05-21T17:31:09.694Z,21.10
2023-05-21T17:33:37.721Z,21.00
2023-05-21T17:36:04.880Z,20.90
2023-05-21T17:38:31.826Z,20.90
2023-05-21T17:40:59.631Z,20.80
2023-05-21T17:43:31.865Z,20.70
2023-05-21T17:45:58.815Z,20.70
2023-05-21T17:48:27.157Z,20.50
2023-05-21T17:50:54.206Z,20.60
2023-05-21T17:55:49.820Z,20.40
2023-05-21T17:58:16.858Z,20.30
2023-05-21T18:00:43.750Z,20.30
2023-05-21T18:05:38.397Z,20.10
2023-05-21T18:08:07.044Z,20.00
2023-05-21T18:10:34.313Z,19.90
2023-05-21T18:13:01.266Z,19.90
2023-05-21T18:15:28.151Z,19.70
2023-05-21T18:17:55.183Z,19.70
2023-05-21T18:20:22.097Z,19.60
2023-05-21T18:22:49.021Z,19.60
2023-05-21T18:25:15.929Z,19.50
2023-05-21T18:27:42.791Z,19.50
2023-05-21T18:30:10.085Z,19.30
2023-05-21T18:32:39.807Z,19.30
2023-05-21T18:35:08.209Z,19.20
2023-05-21T18:37:35.223Z,19.10
2023-05-21T18:40:02.117Z,19.10
2023-05-21T18:42:28.961Z,19.00
2023-05-21T18:44:56.109Z,19.00
2023-05-21T18:47:23.687Z,18.90
2023-05-21T18:49:50.725Z,18.80
2023-05-21T18:52:17.634Z,18.80
2023-05-21T18:54:45.110Z,18.80
2023-05-21T18:57:13.616Z,18.80
2023-05-21T19:02:09.049Z,18.60
2023-05-21T19:04:35.923Z,18.50
2023-05-21T19:07:03.895Z,18.60
2023-05-21T19:09:30.968Z,18.50
2023-05-21T19:11:58.020Z,18.40
2023-05-21T19:14:24.984Z,18.30
2023-05-21T19:16:51.933Z,18.30
2023-05-21T19:19:18.901Z,18.30
2023-05-21T19:21:45.952Z,18.20
2023-05-21T19:24:12.905Z,18.20
2023-05-21T19:26:39.824Z,18.10
2023-05-21T19:29:06.679Z,18.10
2023-05-21T19:31:34.020Z,18.00
2023-05-21T19:34:01.102Z,18.00
2023-05-21T19:36:32.613Z,18.00
2023-05-21T19:39:05.303Z,17.90
2023-05-21T19:41:32.157Z,18.00
2023-05-21T19:43:59.011Z,17.70
2023-05-21T19:46:26.138Z,17.80
2023-05-21T19:48:53.035Z,17.80
2023-05-21T19:51:20.028Z,17.70
2023-05-21T19:53:46.938Z,17.70
2023-05-21T19:56:13.852Z,17.70
2023-05-21T19:58:40.945Z,17.50
2023-05-21T20:01:08.295Z,17.50
2023-05-21T20:03:37.960Z,17.40
2023-05-21T20:06:04.971Z,17.40
2023-05-21T20:08:32.479Z,17.40
2023-05-21T20:10:59.348Z,17.40
2023-05-21T20:13:26.486Z,17.30
2023-05-21T20:15:53.478Z,17.20
2023-05-21T20:18:21.724Z,17.10
2023-05-21T20:20:49.291Z,17.20
2023-05-21T20:23:16.167Z,17.10
2023-05-21T20:25:43.106Z,17.00
2023-05-21T20:28:10.044Z,17.00
2023-05-21T20:30:52.853Z,17.00
2023-05-21T20:33:20.347Z,16.90
2023-05-21T20:35:47.242Z,16.80
2023-05-21T20:38:16.114Z,16.90
2023-05-21T20:40:44.170Z,16.80
2023-05-21T20:43:15.262Z,16.70
2023-05-21T20:45:43.660Z,16.80
2023-05-21T20:48:12.049Z,16.80
2023-05-21T20:50:40.975Z,16.60
2023-05-21T20:53:08.773Z,16.70
2023-05-21T20:55:38.628Z,16.70
2023-05-21T20:58:05.752Z,16.60
2023-05-21T21:00:33.575Z,16.50
2023-05-21T21:03:01.979Z,16.50
2023-05-21T21:05:28.925Z,16.30
2023-05-21T21:07:56.169Z,16.40
2023-05-21T21:10:23.271Z,16.30
2023-05-21T21:12:50.378Z,16.20
2023-05-21T21:15:17.765Z,16.20
2023-05-21T21:17:44.812Z,16.20
2023-05-21T21:20:13.711Z,16.10
2023-05-21T21:22:41.442Z,16.10
2023-05-21T21:25:08.874Z,16.10
2023-05-21T21:27:35.879Z,16.10
2023-05-21T21:30:04.696Z,16.10
2023-05-21T21:32:31.690Z,16.20
2023-05-21T21:34:58.573Z,16.10
2023-05-21T21:37:25.708Z,16.10
2023-05-21T21:39:52.587Z,16.10
2023-05-21T21:42:19.482Z,15.90
2023-05-21T21:44:46.461Z,16.00
2023-05-21T21:47:13.358Z,15.90
2023-05-21T21:49:40.448Z,15.90
2023-05-21T21:52:08.314Z,16.00
2023-05-21T21:54:35.228Z,16.00
2023-05-21T21:57:02.075Z,16.00
2023-05-21T21:59:29.436Z,16.00
2023-05-21T22:01:56.594Z,16.00
2023-05-21T22:04:23.544Z,15.90
2023-05-21T22:06:50.492Z,15.90
2023-05-21T22:09:17.660Z,15.90
2023-05-21T22:11:44.530Z,15.80
2023-05-21T22:14:11.824Z,15.80
2023-05-21T22:16:38.824Z,15.80
2023-05-21T22:19:05.762Z,15.80
2023-05-21T22:21:34.392Z,15.80
2023-05-21T22:24:01.254Z,15.70
2023-05-21T22:26:28.087Z,15.70
2023-05-21T22:28:55.156Z,15.70
2023-05-21T22:31:22.204Z,15.70
2023-05-21T22:33:49.095Z,15.60
2023-05-21T22:36:16.507Z,15.40
2023-05-21T22:38:43.877Z,15.40
2023-05-21T22:41:11.421Z,15.30
2023-05-21T22:43:38.390Z,15.30
2023-05-21T22:46:05.572Z,15.50
2023-05-21T22:48:34.435Z,15.40
2023-05-21T22:51:02.040Z,15.40
2023-05-21T22:53:29.006Z,15.50
2023-05-21T22:55:55.938Z,15.50
2023-05-21T22:58:22.857Z,15.40
2023-05-21T23:00:49.740Z,15.50
2023-05-21T23:03:16.939Z,15.40
2023-05-21T23:05:44.212Z,15.40
2023-05-21T23:08:11.239Z,15.30
2023-05-21T23:10:38.296Z,15.10
2023-05-21T23:13:05.300Z,15.10
2023-05-21T23:15:32.158Z,15.00
2023-05-21T23:18:00.431Z,14.90
2023-05-21T23:20:27.900Z,14.90
2023-05-21T23:22:54.728Z,14.80
2023-05-21T23:25:21.615Z,14.80
2023-05-21T23:27:48.944Z,14.80
2023-05-21T23:30:16.070Z,14.80
2023-05-21T23:32:42.950Z,14.80
2023-05-21T23:35:10.139Z,14.60
2023-05-21T23:37:37.068Z,14.60
2023-05-21T23:40:04.241Z,14.60
2023-05-21T23:42:31.214Z,14.60
2023-05-21T23:44:58.084Z,14.70
2023-05-21T23:47:25.931Z,14.60
2023-05-21T23:49:53.020Z,14.50
2023-05-21T23:52:19.923Z,14.50
2023-05-21T23:54:46.912Z,14.40
2023-05-21T23:57:14.511Z,14.40
2023-05-21T23:59:41.459Z,14.20
